createdAt,value
2022-12-05T00:02:17.850Z,0.83
2022-12-05T00:07:24.139Z,0.82
2022-12-05T00:12:30.677Z,0.79
2022-12-05T00:17:38.650Z,0.81
2022-12-05T00:22:45.131Z,0.71
2022-12-05T00:27:51.510Z,0.65
2022-12-05T00:32:59.969Z,0.67
2022-12-05T00:38:06.339Z,0.73
2022-12-05T00:43:12.561Z,0.63
2022-12-05T00:48:20.148Z,0.57
2022-12-05T00:53:26.311Z,0.57
2022-12-05T00:58:33.734Z,0.59
2022-12-05T01:03:41.840Z,0.58
2022-12-05T01:08:48.624Z,0.54
2022-12-05T01:13:55.655Z,0.51
2022-12-05T01:19:08.497Z,0.53
2022-12-05T01:24:15.208Z,0.58
2022-12-05T01:29:23.404Z,0.62
2022-12-05T01:34:31.448Z,0.62
2022-12-05T01:39:37.776Z,0.54
2022-12-05T01:45:08.893Z,0.56
2022-12-05T01:50:16.837Z,0.60
2022-12-05T01:55:23.468Z,0.61
2022-12-05T02:00:30.226Z,0.56
2022-12-05T02:05:39.691Z,0.56
2022-12-05T02:10:50.517Z,0.54
2022-12-05T02:16:05.110Z,0.56
2022-12-05T02:22:10.947Z,0.57
2022-12-05T02:27:45.939Z,0.57
2022-12-05T02:33:12.388Z,0.48
2022-12-05T02:38:27.944Z,0.51
2022-12-05T02:43:41.438Z,0.57
2022-12-05T02:48:51.707Z,0.53
2022-12-05T02:54:02.781Z,0.48
2022-12-05T02:59:09.131Z,0.49
2022-12-05T03:04:18.680Z,0.46
2022-12-05T03:09:30.785Z,0.52
2022-12-05T03:14:46.166Z,0.53
2022-12-05T03:20:00.078Z,0.58
2022-12-05T03:25:08.118Z,0.54
2022-12-05T03:30:18.883Z,0.53
2022-12-05T03:35:33.731Z,0.53
2022-12-05T03:40:47.133Z,0.50
2022-12-05T03:46:02.265Z,0.49
2022-12-05T03:51:14.037Z,0.41
2022-12-05T03:56:26.751Z,0.44
2022-12-05T04:01:35.433Z,0.40
2022-12-05T04:06:47.368Z,0.38
2022-12-05T04:12:00.193Z,0.36
2022-12-05T04:17:12.638Z,0.39
2022-12-05T04:22:21.166Z,0.33
2022-12-05T04:27:36.953Z,0.37
2022-12-05T04:32:47.975Z,0.37
2022-12-05T04:38:03.840Z,0.33
2022-12-05T04:43:14.112Z,0.30
2022-12-05T04:48:21.322Z,0.31
2022-12-05T04:53:33.048Z,0.32
2022-12-05T04:58:39.416Z,0.36
2022-12-05T05:03:51.935Z,0.43
2022-12-05T05:09:00.792Z,0.39
2022-12-05T05:14:07.415Z,0.34
2022-12-05T05:19:14.143Z,0.36
2022-12-05T05:24:23.886Z,0.33
2022-12-05T05:29:30.156Z,0.31
2022-12-05T05:34:36.798Z,0.36
2022-12-05T05:39:44.723Z,0.38
2022-12-05T05:44:51.068Z,0.38
2022-12-05T05:49:57.640Z,0.38
2022-12-05T05:55:07.710Z,0.38
2022-12-05T06:00:16.310Z,0.38
2022-12-05T06:05:22.604Z,0.37
2022-12-05T06:10:31.376Z,0.36
2022-12-05T06:15:39.647Z,0.28
2022-12-05T06:20:54.966Z,0.33
2022-12-05T06:26:03.154Z,0.33
2022-12-05T06:31:11.470Z,0.34
2022-12-05T06:36:20.873Z,0.32
2022-12-05T06:41:29.551Z,0.36
2022-12-05T06:46:35.798Z,0.41
2022-12-05T06:51:42.177Z,0.39
2022-12-05T06:56:50.095Z,0.39
2022-12-05T07:01:56.432Z,0.41
2022-12-05T07:07:03.264Z,0.42
2022-12-05T07:12:11.372Z,0.38
2022-12-05T07:17:17.987Z,0.41
2022-12-05T07:22:25.681Z,0.39
2022-12-05T07:27:34.502Z,0.38
2022-12-05T07:32:40.975Z,0.38
2022-12-05T07:37:47.352Z,0.39
2022-12-05T07:42:54.957Z,0.29
2022-12-05T07:48:01.295Z,0.31
2022-12-05T07:53:07.483Z,0.36
2022-12-05T07:58:15.145Z,0.36
2022-12-05T08:03:21.365Z,0.35
2022-12-05T08:08:27.715Z,0.35
2022-12-05T08:13:35.728Z,0.46
2022-12-05T08:18:42.193Z,0.47
2022-12-05T08:23:48.990Z,0.48
2022-12-05T08:29:00.815Z,0.49
2022-12-05T08:34:07.300Z,0.51
2022-12-05T08:39:16.792Z,0.54
2022-12-05T08:44:25.515Z,0.57
2022-12-05T08:49:31.876Z,0.53
2022-12-05T08:54:38.127Z,0.64
2022-12-05T08:59:45.774Z,0.64
2022-12-05T09:04:54.183Z,0.60
2022-12-05T09:10:00.890Z,0.64
2022-12-05T09:15:12.126Z,0.67
2022-12-05T09:20:18.900Z,0.71
2022-12-05T09:25:25.270Z,0.74
2022-12-05T09:30:32.773Z,0.77
2022-12-05T09:35:42.117Z,0.77
2022-12-05T09:40:50.403Z,0.83
2022-12-05T09:46:06.239Z,0.84
2022-12-05T09:51:14.180Z,0.88
2022-12-05T09:56:28.595Z,0.85
2022-12-05T10:01:43.015Z,0.89
2022-12-05T10:07:01.619Z,0.95
2022-12-05T10:12:21.916Z,0.97
2022-12-05T10:17:35.873Z,1.01
2022-12-05T10:22:49.398Z,1.06
2022-12-05T10:28:00.667Z,1.06
2022-12-05T10:33:19.902Z,1.09
2022-12-05T10:38:29.542Z,1.03
2022-12-05T10:43:43.838Z,1.07
2022-12-05T10:48:51.535Z,1.06
2022-12-05T10:53:58.310Z,1.11
2022-12-05T10:59:05.036Z,1.10
2022-12-05T11:04:30.873Z,1.07
2022-12-05T11:09:39.714Z,1.11
2022-12-05T11:15:05.839Z,1.17
2022-12-05T11:20:41.623Z,1.17
2022-12-05T11:25:48.061Z,1.16
2022-12-05T11:31:01.376Z,1.18
2022-12-05T11:36:23.799Z,1.25
2022-12-05T11:41:50.737Z,1.24
2022-12-05T11:47:08.125Z,1.25
2022-12-05T11:52:29.847Z,1.23
2022-12-05T11:58:07.284Z,1.24
2022-12-05T12:03:46.675Z,1.29
2022-12-05T12:09:17.420Z,1.32
2022-12-05T12:14:34.781Z,1.28
2022-12-05T12:20:12.862Z,1.28
2022-12-05T12:25:33.417Z,1.28
2022-12-05T12:31:02.078Z,1.24
2022-12-05T12:36:19.863Z,1.30
2022-12-05T12:41:58.115Z,1.30
2022-12-05T12:47:06.234Z,1.32
2022-12-05T12:52:17.525Z,1.34
2022-12-05T12:57:33.124Z,1.32
2022-12-05T13:02:48.250Z,1.30
2022-12-05T13:07:59.895Z,1.31
2022-12-05T13:13:11.937Z,1.30
2022-12-05T13:18:21.144Z,1.28
2022-12-05T13:23:29.599Z,1.25
2022-12-05T13:28:45.463Z,1.26
2022-12-05T13:33:53.038Z,1.26
2022-12-05T13:39:22.963Z,1.26
2022-12-05T13:44:37.718Z,1.28
2022-12-05T13:49:50.356Z,1.26
2022-12-05T13:55:02.647Z,1.27
2022-12-05T14:00:34.518Z,1.25
2022-12-05T14:05:53.699Z,1.23
2022-12-05T14:11:13.385Z,1.27
2022-12-05T14:16:51.528Z,1.30
2022-12-05T14:22:15.797Z,1.25
2022-12-05T14:27:45.062Z,1.24
2022-12-05T14:32:54.401Z,1.24
2022-12-05T14:38:05.832Z,1.19
2022-12-05T14:43:23.499Z,1.21
2022-12-05T14:48:35.194Z,1.19
2022-12-05T14:53:45.157Z,1.23
2022-12-05T14:58:59.765Z,1.26
2022-12-05T15:04:16.351Z,1.19
2022-12-05T15:09:43.822Z,1.19
2022-12-05T15:15:09.631Z,1.25
2022-12-05T15:20:40.285Z,1.24
2022-12-05T15:25:47.771Z,1.25
2022-12-05T15:30:59.116Z,1.28
2022-12-05T15:36:09.020Z,1.29
2022-12-05T15:41:19.933Z,1.30
2022-12-05T15:46:28.426Z,1.29
2022-12-05T15:51:39.766Z,1.31
2022-12-05T15:56:52.180Z,1.30
2022-12-05T16:02:05.251Z,1.32
2022-12-05T16:07:15.535Z,1.31
2022-12-05T16:12:28.860Z,1.28
2022-12-05T16:17:44.509Z,1.32
2022-12-05T16:22:55.569Z,1.33
2022-12-05T16:28:18.942Z,1.34
2022-12-05T16:33:25.620Z,1.34
2022-12-05T16:38:34.770Z,1.35
2022-12-05T16:43:48.239Z,1.35
2022-12-05T16:49:21.118Z,1.36
2022-12-05T16:54:29.208Z,1.36
2022-12-05T16:59:38.330Z,1.34
2022-12-05T17:04:44.705Z,1.38
2022-12-05T17:09:52.487Z,1.38
2022-12-05T17:15:00.626Z,1.38
2022-12-05T17:20:09.220Z,1.37
2022-12-05T17:25:28.704Z,1.42
2022-12-05T17:30:35.480Z,1.41
2022-12-05T17:35:43.041Z,1.41
2022-12-05T17:40:54.976Z,1.42
2022-12-05T17:46:02.901Z,1.41
2022-12-05T17:51:13.505Z,1.42
2022-12-05T17:56:21.969Z,1.46
2022-12-05T18:01:28.645Z,1.42
2022-12-05T18:06:35.782Z,1.43
2022-12-05T18:11:43.590Z,1.44
2022-12-05T18:16:50.288Z,1.43
2022-12-05T18:21:57.556Z,1.44
2022-12-05T18:27:06.119Z,1.46
2022-12-05T18:32:13.048Z,1.48
2022-12-05T18:37:19.916Z,1.47
2022-12-05T18:42:28.852Z,1.46
2022-12-05T18:47:36.315Z,1.50
2022-12-05T18:52:43.393Z,1.49
2022-12-05T18:57:53.789Z,1.48
2022-12-05T19:03:07.954Z,1.48
2022-12-05T19:08:17.715Z,1.48
2022-12-05T19:13:27.270Z,1.47
2022-12-05T19:18:34.278Z,1.50
2022-12-05T19:23:41.408Z,1.51
2022-12-05T19:28:50.562Z,1.51
2022-12-05T19:34:01.386Z,1.51
2022-12-05T19:39:13.736Z,1.55
2022-12-05T19:44:23.233Z,1.58
2022-12-05T19:49:30.628Z,1.59
2022-12-05T19:54:37.495Z,1.61
2022-12-05T19:59:47.396Z,1.63
2022-12-05T20:04:54.163Z,1.64
2022-12-05T20:10:02.854Z,1.65
2022-12-05T20:15:12.280Z,1.64
2022-12-05T20:20:20.622Z,1.66
2022-12-05T20:25:28.016Z,1.67
2022-12-05T20:30:38.256Z,1.66
2022-12-05T20:35:46.443Z,1.68
2022-12-05T20:40:54.408Z,1.71
2022-12-05T20:46:08.477Z,1.72
2022-12-05T20:51:18.342Z,1.73
2022-12-05T20:56:29.000Z,1.76
2022-12-05T21:01:37.813Z,1.75
2022-12-05T21:06:46.332Z,1.76
2022-12-05T21:11:52.938Z,1.77
2022-12-05T21:17:01.076Z,1.78
2022-12-05T21:22:07.458Z,1.80
2022-12-05T21:27:14.129Z,1.80
2022-12-05T21:32:21.939Z,1.82
2022-12-05T21:37:28.213Z,1.82
2022-12-05T21:42:34.840Z,1.80
2022-12-05T21:47:42.525Z,1.81
2022-12-05T21:52:48.821Z,1.83
2022-12-05T21:57:56.000Z,1.80
2022-12-05T22:03:04.009Z,1.83
2022-12-05T22:08:10.541Z,1.84
2022-12-05T22:13:17.143Z,1.84
2022-12-05T22:18:25.066Z,1.85
2022-12-05T22:23:31.957Z,1.84
2022-12-05T22:28:39.206Z,1.86
2022-12-05T22:33:47.946Z,1.86
2022-12-05T22:38:54.404Z,1.86
2022-12-05T22:44:02.015Z,1.88
2022-12-05T22:49:12.134Z,1.88
2022-12-05T22:54:18.714Z,1.89
2022-12-05T22:59:24.992Z,1.89
2022-12-05T23:04:32.828Z,1.88
2022-12-05T23:09:39.321Z,1.85
2022-12-05T23:14:45.965Z,1.86
2022-12-05T23:19:54.108Z,1.85
2022-12-05T23:25:00.258Z,1.86
2022-12-05T23:30:08.346Z,1.87
2022-12-05T23:35:16.449Z,1.91
2022-12-05T23:40:22.858Z,1.90
2022-12-05T23:45:29.356Z,1.89
2022-12-05T23:50:37.125Z,1.87
2022-12-05T23:55:43.517Z,1.88
